sensor_id;sensor_type;location;lat;lon;timestamp;temperature;humidity
17399;DHT22;8817;48.170;8.592;2023-03-14T00:01:55;14.70;48.80
17399;DHT22;8817;48.170;8.592;2023-03-14T00:04:22;14.70;48.90
17399;DHT22;8817;48.170;8.592;2023-03-14T00:06:49;14.70;48.90
17399;DHT22;8817;48.170;8.592;2023-03-14T00:09:17;14.70;48.90
17399;DHT22;8817;48.170;8.592;2023-03-14T00:11:44;14.60;48.90
17399;DHT22;8817;48.170;8.592;2023-03-14T00:14:12;14.70;49.00
17399;DHT22;8817;48.170;8.592;2023-03-14T00:16:40;14.60;48.90
17399;DHT22;8817;48.170;8.592;2023-03-14T00:19:07;14.60;49.00
17399;DHT22;8817;48.170;8.592;2023-03-14T00:21:34;14.60;49.00
17399;DHT22;8817;48.170;8.592;2023-03-14T00:24:01;14.60;49.00
17399;DHT22;8817;48.170;8.592;2023-03-14T00:26:29;14.50;49.60
17399;DHT22;8817;48.170;8.592;2023-03-14T00:28:56;14.50;49.60
17399;DHT22;8817;48.170;8.592;2023-03-14T00:31:23;14.50;49.00
17399;DHT22;8817;48.170;8.592;2023-03-14T00:33:51;14.50;49.10
17399;DHT22;8817;48.170;8.592;2023-03-14T00:36:19;14.50;49.10
17399;DHT22;8817;48.170;8.592;2023-03-14T00:38:47;14.40;49.10
17399;DHT22;8817;48.170;8.592;2023-03-14T00:41:16;14.40;49.10
17399;DHT22;8817;48.170;8.592;2023-03-14T00:43:45;14.40;49.10
17399;DHT22;8817;48.170;8.592;2023-03-14T00:46:12;14.30;49.10
17399;DHT22;8817;48.170;8.592;2023-03-14T00:48:39;14.30;49.10
17399;DHT22;8817;48.170;8.592;2023-03-14T00:51:07;14.30;49.10
17399;DHT22;8817;48.170;8.592;2023-03-14T00:53:36;14.30;49.10
17399;DHT22;8817;48.170;8.592;2023-03-14T00:56:04;14.30;49.20
17399;DHT22;8817;48.170;8.592;2023-03-14T00:58:31;14.20;49.20
17399;DHT22;8817;48.170;8.592;2023-03-14T01:01:02;14.20;49.10
17399;DHT22;8817;48.170;8.592;2023-03-14T01:03:31;14.20;49.20
17399;DHT22;8817;48.170;8.592;2023-03-14T01:06:07;14.20;49.20
17399;DHT22;8817;48.170;8.592;2023-03-14T01:08:34;14.10;49.20
17399;DHT22;8817;48.170;8.592;2023-03-14T01:11:05;14.10;49.20
17399;DHT22;8817;48.170;8.592;2023-03-14T01:13:32;14.10;49.30
17399;DHT22;8817;48.170;8.592;2023-03-14T01:16:03;14.10;49.30
17399;DHT22;8817;48.170;8.592;2023-03-14T01:18:31;14.00;49.30
17399;DHT22;8817;48.170;8.592;2023-03-14T01:20:58;14.00;49.30
17399;DHT22;8817;48.170;8.592;2023-03-14T01:23:25;14.00;49.30
17399;DHT22;8817;48.170;8.592;2023-03-14T01:25:52;14.00;49.30
17399;DHT22;8817;48.170;8.592;2023-03-14T01:28:18;14.00;49.30
17399;DHT22;8817;48.170;8.592;2023-03-14T01:30:45;14.00;49.40
17399;DHT22;8817;48.170;8.592;2023-03-14T01:33:13;14.00;49.40
17399;DHT22;8817;48.170;8.592;2023-03-14T01:35:40;13.90;49.40
17399;DHT22;8817;48.170;8.592;2023-03-14T01:38:07;13.90;49.40
17399;DHT22;8817;48.170;8.592;2023-03-14T01:40:41;13.90;49.40
17399;DHT22;8817;48.170;8.592;2023-03-14T01:43:15;13.90;49.50
17399;DHT22;8817;48.170;8.592;2023-03-14T01:48:50;13.90;49.50
17399;DHT22;8817;48.170;8.592;2023-03-14T01:51:23;13.90;49.50
17399;DHT22;8817;48.170;8.592;2023-03-14T01:53:51;13.90;49.50
17399;DHT22;8817;48.170;8.592;2023-03-14T01:56:19;13.90;49.50
17399;DHT22;8817;48.170;8.592;2023-03-14T01:58:48;13.90;49.60
17399;DHT22;8817;48.170;8.592;2023-03-14T02:01:18;13.90;49.60
17399;DHT22;8817;48.170;8.592;2023-03-14T02:03:52;13.90;49.60
17399;DHT22;8817;48.170;8.592;2023-03-14T02:06:23;13.90;49.60
17399;DHT22;8817;48.170;8.592;2023-03-14T02:08:51;13.90;49.60
17399;DHT22;8817;48.170;8.592;2023-03-14T02:11:18;13.90;50.20
17399;DHT22;8817;48.170;8.592;2023-03-14T02:13:46;13.90;49.60
17399;DHT22;8817;48.170;8.592;2023-03-14T02:16:13;13.90;49.60
17399;DHT22;8817;48.170;8.592;2023-03-14T02:18:40;13.80;49.60
17399;DHT22;8817;48.170;8.592;2023-03-14T02:21:14;13.80;49.60
17399;DHT22;8817;48.170;8.592;2023-03-14T02:23:50;13.80;49.60
17399;DHT22;8817;48.170;8.592;2023-03-14T02:26:22;13.80;49.70
17399;DHT22;8817;48.170;8.592;2023-03-14T02:28:51;13.80;49.70
17399;DHT22;8817;48.170;8.592;2023-03-14T02:31:19;13.90;49.70
17399;DHT22;8817;48.170;8.592;2023-03-14T02:33:48;13.90;49.70
17399;DHT22;8817;48.170;8.592;2023-03-14T02:36:15;13.90;49.70
17399;DHT22;8817;48.170;8.592;2023-03-14T02:38:46;13.80;49.60
17399;DHT22;8817;48.170;8.592;2023-03-14T02:41:14;13.80;49.60
17399;DHT22;8817;48.170;8.592;2023-03-14T02:43:41;13.80;49.60
17399;DHT22;8817;48.170;8.592;2023-03-14T02:46:11;13.80;49.60
17399;DHT22;8817;48.170;8.592;2023-03-14T02:48:41;13.70;49.60
17399;DHT22;8817;48.170;8.592;2023-03-14T02:51:12;13.70;49.60
17399;DHT22;8817;48.170;8.592;2023-03-14T02:53:40;13.70;49.60
17399;DHT22;8817;48.170;8.592;2023-03-14T02:56:08;13.60;49.50
17399;DHT22;8817;48.170;8.592;2023-03-14T02:58:36;13.60;49.50
17399;DHT22;8817;48.170;8.592;2023-03-14T03:01:03;13.50;49.50
17399;DHT22;8817;48.170;8.592;2023-03-14T03:03:32;13.50;49.50
17399;DHT22;8817;48.170;8.592;2023-03-14T03:05:59;13.50;49.50
17399;DHT22;8817;48.170;8.592;2023-03-14T03:08:27;13.40;49.50
17399;DHT22;8817;48.170;8.592;2023-03-14T03:10:56;13.40;49.50
17399;DHT22;8817;48.170;8.592;2023-03-14T03:13:23;13.40;49.50
17399;DHT22;8817;48.170;8.592;2023-03-14T03:15:50;13.30;49.50
17399;DHT22;8817;48.170;8.592;2023-03-14T03:18:17;13.30;49.60
17399;DHT22;8817;48.170;8.592;2023-03-14T03:20:45;13.20;49.50
17399;DHT22;8817;48.170;8.592;2023-03-14T03:23:12;13.20;49.60
17399;DHT22;8817;48.170;8.592;2023-03-14T03:25:39;13.20;49.60
17399;DHT22;8817;48.170;8.592;2023-03-14T03:28:06;13.20;49.70
17399;DHT22;8817;48.170;8.592;2023-03-14T03:30:37;13.20;49.70
17399;DHT22;8817;48.170;8.592;2023-03-14T03:33:04;13.20;49.70
17399;DHT22;8817;48.170;8.592;2023-03-14T03:35:31;13.20;50.30
17399;DHT22;8817;48.170;8.592;2023-03-14T03:37:59;13.20;49.70
17399;DHT22;8817;48.170;8.592;2023-03-14T03:40:26;13.20;49.70
17399;DHT22;8817;48.170;8.592;2023-03-14T03:42:53;13.20;49.70
17399;DHT22;8817;48.170;8.592;2023-03-14T03:45:20;13.20;49.70
17399;DHT22;8817;48.170;8.592;2023-03-14T03:47:47;13.20;49.70
17399;DHT22;8817;48.170;8.592;2023-03-14T03:50:14;13.20;49.70
17399;DHT22;8817;48.170;8.592;2023-03-14T03:52:41;13.20;49.70
17399;DHT22;8817;48.170;8.592;2023-03-14T03:55:09;13.20;49.70
17399;DHT22;8817;48.170;8.592;2023-03-14T03:57:36;13.20;49.70
17399;DHT22;8817;48.170;8.592;2023-03-14T04:00:04;13.20;49.70
17399;DHT22;8817;48.170;8.592;2023-03-14T04:02:31;13.20;49.70
17399;DHT22;8817;48.170;8.592;2023-03-14T04:04:58;13.20;49.70
17399;DHT22;8817;48.170;8.592;2023-03-14T04:07:25;13.20;49.70
17399;DHT22;8817;48.170;8.592;2023-03-14T04:09:52;13.20;49.70
17399;DHT22;8817;48.170;8.592;2023-03-14T04:12:20;13.20;49.70
17399;DHT22;8817;48.170;8.592;2023-03-14T04:14:47;13.20;49.70
17399;DHT22;8817;48.170;8.592;2023-03-14T04:17:14;13.20;49.70
17399;DHT22;8817;48.170;8.592;2023-03-14T04:19:41;13.20;49.70
17399;DHT22;8817;48.170;8.592;2023-03-14T04:22:08;13.20;49.70
17399;DHT22;8817;48.170;8.592;2023-03-14T04:24:41;13.20;49.70
17399;DHT22;8817;48.170;8.592;2023-03-14T04:27:08;13.20;49.80
17399;DHT22;8817;48.170;8.592;2023-03-14T04:29:36;13.30;49.80
17399;DHT22;8817;48.170;8.592;2023-03-14T04:32:03;13.30;49.80
17399;DHT22;8817;48.170;8.592;2023-03-14T04:34:30;13.30;49.80
17399;DHT22;8817;48.170;8.592;2023-03-14T04:36:57;13.30;49.80
17399;DHT22;8817;48.170;8.592;2023-03-14T04:39:24;13.30;49.70
17399;DHT22;8817;48.170;8.592;2023-03-14T04:41:51;13.30;49.70
17399;DHT22;8817;48.170;8.592;2023-03-14T04:44:18;13.30;49.70
17399;DHT22;8817;48.170;8.592;2023-03-14T04:46:47;13.30;49.70
17399;DHT22;8817;48.170;8.592;2023-03-14T04:49:13;13.30;49.80
17399;DHT22;8817;48.170;8.592;2023-03-14T04:51:40;13.30;49.80
17399;DHT22;8817;48.170;8.592;2023-03-14T04:54:08;13.30;49.80
17399;DHT22;8817;48.170;8.592;2023-03-14T04:56:35;13.30;49.80
17399;DHT22;8817;48.170;8.592;2023-03-14T04:59:02;13.30;49.80
17399;DHT22;8817;48.170;8.592;2023-03-14T05:01:29;13.30;49.70
17399;DHT22;8817;48.170;8.592;2023-03-14T05:03:58;13.30;49.70
17399;DHT22;8817;48.170;8.592;2023-03-14T05:06:25;13.30;49.70
17399;DHT22;8817;48.170;8.592;2023-03-14T05:08:52;13.30;49.70
17399;DHT22;8817;48.170;8.592;2023-03-14T05:11:18;13.30;49.80
17399;DHT22;8817;48.170;8.592;2023-03-14T05:13:45;13.30;49.70
17399;DHT22;8817;48.170;8.592;2023-03-14T05:16:12;13.30;49.70
17399;DHT22;8817;48.170;8.592;2023-03-14T05:18:39;13.20;49.70
17399;DHT22;8817;48.170;8.592;2023-03-14T05:21:07;13.30;49.80
17399;DHT22;8817;48.170;8.592;2023-03-14T05:23:34;13.20;49.80
17399;DHT22;8817;48.170;8.592;2023-03-14T05:26:01;13.20;49.80
17399;DHT22;8817;48.170;8.592;2023-03-14T05:28:28;13.20;49.80
17399;DHT22;8817;48.170;8.592;2023-03-14T05:30:55;13.20;49.80
17399;DHT22;8817;48.170;8.592;2023-03-14T05:33:22;13.20;49.80
17399;DHT22;8817;48.170;8.592;2023-03-14T05:35:49;13.30;49.90
17399;DHT22;8817;48.170;8.592;2023-03-14T05:38:17;13.30;49.90
17399;DHT22;8817;48.170;8.592;2023-03-14T05:40:45;13.30;49.90
17399;DHT22;8817;48.170;8.592;2023-03-14T05:43:12;13.30;49.90
17399;DHT22;8817;48.170;8.592;2023-03-14T05:45:41;13.30;49.90
17399;DHT22;8817;48.170;8.592;2023-03-14T05:48:08;13.30;49.90
17399;DHT22;8817;48.170;8.592;2023-03-14T05:50:35;13.30;49.90
17399;DHT22;8817;48.170;8.592;2023-03-14T05:53:02;13.30;49.90
17399;DHT22;8817;48.170;8.592;2023-03-14T05:55:30;13.30;50.40
17399;DHT22;8817;48.170;8.592;2023-03-14T05:57:57;13.30;49.90
17399;DHT22;8817;48.170;8.592;2023-03-14T06:00:24;13.30;49.90
17399;DHT22;8817;48.170;8.592;2023-03-14T06:02:51;13.30;49.90
17399;DHT22;8817;48.170;8.592;2023-03-14T06:05:18;13.30;49.90
17399;DHT22;8817;48.170;8.592;2023-03-14T06:07:45;13.30;50.00
17399;DHT22;8817;48.170;8.592;2023-03-14T06:10:12;13.30;50.00
17399;DHT22;8817;48.170;8.592;2023-03-14T06:12:40;13.30;50.00
17399;DHT22;8817;48.170;8.592;2023-03-14T06:15:08;13.30;49.90
17399;DHT22;8817;48.170;8.592;2023-03-14T06:17:35;13.30;49.90
17399;DHT22;8817;48.170;8.592;2023-03-14T06:20:02;13.30;49.80
17399;DHT22;8817;48.170;8.592;2023-03-14T06:22:29;13.30;49.90
17399;DHT22;8817;48.170;8.592;2023-03-14T06:24:56;13.30;49.90
17399;DHT22;8817;48.170;8.592;2023-03-14T06:27:23;13.30;49.90
17399;DHT22;8817;48.170;8.592;2023-03-14T06:29:51;13.30;49.90
17399;DHT22;8817;48.170;8.592;2023-03-14T06:32:18;13.30;49.90
17399;DHT22;8817;48.170;8.592;2023-03-14T06:34:46;13.30;50.00
17399;DHT22;8817;48.170;8.592;2023-03-14T06:37:12;13.30;50.00
17399;DHT22;8817;48.170;8.592;2023-03-14T06:39:39;13.20;49.90
17399;DHT22;8817;48.170;8.592;2023-03-14T06:42:06;13.20;50.00
17399;DHT22;8817;48.170;8.592;2023-03-14T06:44:33;13.20;50.00
17399;DHT22;8817;48.170;8.592;2023-03-14T06:47:02;13.20;50.00
17399;DHT22;8817;48.170;8.592;2023-03-14T06:49:29;13.20;50.00
17399;DHT22;8817;48.170;8.592;2023-03-14T06:51:56;13.20;50.00
17399;DHT22;8817;48.170;8.592;2023-03-14T06:54:22;13.20;50.00
17399;DHT22;8817;48.170;8.592;2023-03-14T06:56:50;13.20;50.10
17399;DHT22;8817;48.170;8.592;2023-03-14T06:59:17;13.20;50.30
17399;DHT22;8817;48.170;8.592;2023-03-14T07:01:43;13.20;50.30
17399;DHT22;8817;48.170;8.592;2023-03-14T07:04:12;13.30;50.50
17399;DHT22;8817;48.170;8.592;2023-03-14T07:06:39;13.30;50.50
17399;DHT22;8817;48.170;8.592;2023-03-14T07:09:09;13.40;50.70
17399;DHT22;8817;48.170;8.592;2023-03-14T07:11:36;13.50;50.70
17399;DHT22;8817;48.170;8.592;2023-03-14T07:14:03;13.50;50.70
17399;DHT22;8817;48.170;8.592;2023-03-14T07:16:30;13.60;50.70
17399;DHT22;8817;48.170;8.592;2023-03-14T07:18:58;13.70;50.70
17399;DHT22;8817;48.170;8.592;2023-03-14T07:21:27;13.70;50.70
17399;DHT22;8817;48.170;8.592;2023-03-14T07:23:54;13.80;50.70
17399;DHT22;8817;48.170;8.592;2023-03-14T07:26:21;13.80;50.60
17399;DHT22;8817;48.170;8.592;2023-03-14T07:28:48;13.90;50.70
17399;DHT22;8817;48.170;8.592;2023-03-14T07:31:15;13.90;50.60
17399;DHT22;8817;48.170;8.592;2023-03-14T07:33:42;14.00;50.70
17399;DHT22;8817;48.170;8.592;2023-03-14T07:36:09;14.00;50.80
17399;DHT22;8817;48.170;8.592;2023-03-14T07:38:37;14.10;50.80
17399;DHT22;8817;48.170;8.592;2023-03-14T07:41:05;14.20;50.90
17399;DHT22;8817;48.170;8.592;2023-03-14T07:43:33;14.20;50.90
17399;DHT22;8817;48.170;8.592;2023-03-14T07:46:00;14.30;51.00
17399;DHT22;8817;48.170;8.592;2023-03-14T07:48:27;14.40;51.00
17399;DHT22;8817;48.170;8.592;2023-03-14T07:50:55;14.50;51.10
17399;DHT22;8817;48.170;8.592;2023-03-14T07:53:22;14.50;50.90
17399;DHT22;8817;48.170;8.592;2023-03-14T07:55:52;14.60;50.90
17399;DHT22;8817;48.170;8.592;2023-03-14T07:58:19;14.70;50.90
17399;DHT22;8817;48.170;8.592;2023-03-14T08:00:47;14.80;50.80
17399;DHT22;8817;48.170;8.592;2023-03-14T08:03:14;14.80;50.70
17399;DHT22;8817;48.170;8.592;2023-03-14T08:05:42;14.80;50.60
17399;DHT22;8817;48.170;8.592;2023-03-14T08:08:09;14.90;50.70
17399;DHT22;8817;48.170;8.592;2023-03-14T08:10:36;14.90;50.70
17399;DHT22;8817;48.170;8.592;2023-03-14T08:13:04;14.90;50.60
17399;DHT22;8817;48.170;8.592;2023-03-14T08:15:31;15.00;50.50
17399;DHT22;8817;48.170;8.592;2023-03-14T08:17:58;15.00;50.30
17399;DHT22;8817;48.170;8.592;2023-03-14T08:20:26;15.00;50.30
17399;DHT22;8817;48.170;8.592;2023-03-14T08:22:55;15.00;50.20
17399;DHT22;8817;48.170;8.592;2023-03-14T08:25:23;15.00;50.20
17399;DHT22;8817;48.170;8.592;2023-03-14T08:27:50;15.00;50.20
17399;DHT22;8817;48.170;8.592;2023-03-14T08:30:20;15.00;50.30
17399;DHT22;8817;48.170;8.592;2023-03-14T08:32:47;15.00;50.30
17399;DHT22;8817;48.170;8.592;2023-03-14T08:35:15;15.10;50.40
17399;DHT22;8817;48.170;8.592;2023-03-14T08:37:42;15.10;50.30
17399;DHT22;8817;48.170;8.592;2023-03-14T08:40:09;15.10;50.20
17399;DHT22;8817;48.170;8.592;2023-03-14T08:42:37;15.10;50.20
17399;DHT22;8817;48.170;8.592;2023-03-14T08:45:05;15.10;50.10
17399;DHT22;8817;48.170;8.592;2023-03-14T08:47:34;15.10;50.00
17399;DHT22;8817;48.170;8.592;2023-03-14T08:50:02;15.00;49.90
17399;DHT22;8817;48.170;8.592;2023-03-14T08:52:29;15.00;49.90
17399;DHT22;8817;48.170;8.592;2023-03-14T08:54:57;14.90;49.80
17399;DHT22;8817;48.170;8.592;2023-03-14T08:57:24;14.90;50.00
17399;DHT22;8817;48.170;8.592;2023-03-14T08:59:53;14.90;50.00
17399;DHT22;8817;48.170;8.592;2023-03-14T09:02:21;14.90;50.00
17399;DHT22;8817;48.170;8.592;2023-03-14T09:04:50;14.80;50.00
17399;DHT22;8817;48.170;8.592;2023-03-14T09:07:17;14.80;50.00
17399;DHT22;8817;48.170;8.592;2023-03-14T09:09:44;14.80;49.90
17399;DHT22;8817;48.170;8.592;2023-03-14T09:12:11;14.80;50.00
17399;DHT22;8817;48.170;8.592;2023-03-14T09:14:39;14.80;50.00
17399;DHT22;8817;48.170;8.592;2023-03-14T09:17:05;14.80;50.10
17399;DHT22;8817;48.170;8.592;2023-03-14T09:19:33;14.80;50.10
17399;DHT22;8817;48.170;8.592;2023-03-14T09:22:02;14.80;50.10
17399;DHT22;8817;48.170;8.592;2023-03-14T09:24:29;14.80;50.00
17399;DHT22;8817;48.170;8.592;2023-03-14T09:26:56;14.80;49.90
17399;DHT22;8817;48.170;8.592;2023-03-14T09:29:23;14.70;50.40
17399;DHT22;8817;48.170;8.592;2023-03-14T09:31:50;14.70;49.90
17399;DHT22;8817;48.170;8.592;2023-03-14T09:34:17;14.60;50.40
17399;DHT22;8817;48.170;8.592;2023-03-14T09:36:44;14.50;49.80
17399;DHT22;8817;48.170;8.592;2023-03-14T09:39:13;14.50;50.00
17399;DHT22;8817;48.170;8.592;2023-03-14T09:41:42;14.50;50.00
17399;DHT22;8817;48.170;8.592;2023-03-14T09:44:11;14.50;50.10
17399;DHT22;8817;48.170;8.592;2023-03-14T09:46:41;14.50;50.20
17399;DHT22;8817;48.170;8.592;2023-03-14T09:49:11;14.40;50.20
17399;DHT22;8817;48.170;8.592;2023-03-14T09:51:39;14.50;50.40
17399;DHT22;8817;48.170;8.592;2023-03-14T09:54:21;14.50;50.40
17399;DHT22;8817;48.170;8.592;2023-03-14T09:56:50;14.50;50.30
17399;DHT22;8817;48.170;8.592;2023-03-14T09:59:18;14.50;50.30
17399;DHT22;8817;48.170;8.592;2023-03-14T10:01:45;14.50;50.30
17399;DHT22;8817;48.170;8.592;2023-03-14T10:04:15;14.60;50.40
17399;DHT22;8817;48.170;8.592;2023-03-14T10:06:43;14.60;50.40
17399;DHT22;8817;48.170;8.592;2023-03-14T10:09:13;14.70;50.50
17399;DHT22;8817;48.170;8.592;2023-03-14T10:11:45;14.70;50.40
17399;DHT22;8817;48.170;8.592;2023-03-14T10:14:12;14.70;50.30
17399;DHT22;8817;48.170;8.592;2023-03-14T10:16:42;14.70;50.30
17399;DHT22;8817;48.170;8.592;2023-03-14T10:19:11;14.70;50.30
17399;DHT22;8817;48.170;8.592;2023-03-14T10:21:40;14.70;50.30
17399;DHT22;8817;48.170;8.592;2023-03-14T10:24:19;14.80;50.30
17399;DHT22;8817;48.170;8.592;2023-03-14T10:26:52;14.70;50.20
17399;DHT22;8817;48.170;8.592;2023-03-14T10:29:19;14.70;50.30
17399;DHT22;8817;48.170;8.592;2023-03-14T10:31:50;14.70;50.30
17399;DHT22;8817;48.170;8.592;2023-03-14T10:34:22;14.70;50.30
17399;DHT22;8817;48.170;8.592;2023-03-14T10:36:54;14.70;50.20
17399;DHT22;8817;48.170;8.592;2023-03-14T10:39:27;14.60;50.10
17399;DHT22;8817;48.170;8.592;2023-03-14T10:42:03;14.50;50.10
17399;DHT22;8817;48.170;8.592;2023-03-14T10:44:31;14.50;50.10
17399;DHT22;8817;48.170;8.592;2023-03-14T10:47:00;14.40;50.10
17399;DHT22;8817;48.170;8.592;2023-03-14T10:49:29;14.40;50.10
17399;DHT22;8817;48.170;8.592;2023-03-14T10:52:02;14.30;50.10
17399;DHT22;8817;48.170;8.592;2023-03-14T10:54:30;14.20;50.10
17399;DHT22;8817;48.170;8.592;2023-03-14T10:56:59;14.20;50.20
17399;DHT22;8817;48.170;8.592;2023-03-14T10:59:29;14.00;50.10
17399;DHT22;8817;48.170;8.592;2023-03-14T11:01:59;13.90;50.10
17399;DHT22;8817;48.170;8.592;2023-03-14T11:04:44;13.80;50.70
17399;DHT22;8817;48.170;8.592;2023-03-14T11:07:18;13.70;50.20
17399;DHT22;8817;48.170;8.592;2023-03-14T11:09:52;13.60;50.30
17399;DHT22;8817;48.170;8.592;2023-03-14T11:12:35;13.50;50.30
17399;DHT22;8817;48.170;8.592;2023-03-14T11:15:11;13.40;50.40
17399;DHT22;8817;48.170;8.592;2023-03-14T11:17:46;13.40;50.50
17399;DHT22;8817;48.170;8.592;2023-03-14T11:20:23;13.40;50.60
17399;DHT22;8817;48.170;8.592;2023-03-14T11:22:57;13.30;50.70
17399;DHT22;8817;48.170;8.592;2023-03-14T11:25:29;13.30;50.80
17399;DHT22;8817;48.170;8.592;2023-03-14T11:28:06;13.30;50.80
17399;DHT22;8817;48.170;8.592;2023-03-14T11:30:39;13.30;50.90
17399;DHT22;8817;48.170;8.592;2023-03-14T11:33:14;13.30;51.00
17399;DHT22;8817;48.170;8.592;2023-03-14T11:35:45;13.40;51.00
17399;DHT22;8817;48.170;8.592;2023-03-14T11:38:19;13.40;51.00
17399;DHT22;8817;48.170;8.592;2023-03-14T11:40:52;13.40;50.90
17399;DHT22;8817;48.170;8.592;2023-03-14T11:43:27;13.50;50.90
17399;DHT22;8817;48.170;8.592;2023-03-14T11:45:58;13.40;50.80
17399;DHT22;8817;48.170;8.592;2023-03-14T11:48:35;13.40;50.80
17399;DHT22;8817;48.170;8.592;2023-03-14T11:51:07;13.40;50.80
17399;DHT22;8817;48.170;8.592;2023-03-14T11:53:41;13.40;51.40
17399;DHT22;8817;48.170;8.592;2023-03-14T11:56:16;13.30;50.80
17399;DHT22;8817;48.170;8.592;2023-03-14T11:58:51;13.30;50.80
17399;DHT22;8817;48.170;8.592;2023-03-14T12:01:21;13.30;50.80
17399;DHT22;8817;48.170;8.592;2023-03-14T12:03:56;13.20;50.80
17399;DHT22;8817;48.170;8.592;2023-03-14T12:06:28;13.20;50.90
17399;DHT22;8817;48.170;8.592;2023-03-14T12:08:56;13.10;50.90
17399;DHT22;8817;48.170;8.592;2023-03-14T12:11:33;13.10;51.00
17399;DHT22;8817;48.170;8.592;2023-03-14T12:14:03;13.10;51.00
17399;DHT22;8817;48.170;8.592;2023-03-14T12:16:35;13.10;51.20
17399;DHT22;8817;48.170;8.592;2023-03-14T12:19:26;13.00;51.10
17399;DHT22;8817;48.170;8.592;2023-03-14T12:21:56;12.90;51.00
17399;DHT22;8817;48.170;8.592;2023-03-14T12:24:27;12.90;51.00
17399;DHT22;8817;48.170;8.592;2023-03-14T12:26:56;12.80;51.00
17399;DHT22;8817;48.170;8.592;2023-03-14T12:29:25;12.80;51.10
17399;DHT22;8817;48.170;8.592;2023-03-14T12:32:21;12.70;51.10
17399;DHT22;8817;48.170;8.592;2023-03-14T12:34:49;12.70;51.10
17399;DHT22;8817;48.170;8.592;2023-03-14T12:37:25;12.70;51.70
17399;DHT22;8817;48.170;8.592;2023-03-14T12:40:06;12.60;51.00
17399;DHT22;8817;48.170;8.592;2023-03-14T12:42:45;12.50;50.90
17399;DHT22;8817;48.170;8.592;2023-03-14T12:45:27;12.40;51.50
17399;DHT22;8817;48.170;8.592;2023-03-14T12:48:08;12.40;51.00
17399;DHT22;8817;48.170;8.592;2023-03-14T12:50:40;12.30;50.90
17399;DHT22;8817;48.170;8.592;2023-03-14T12:53:34;12.30;50.90
17399;DHT22;8817;48.170;8.592;2023-03-14T12:56:15;12.10;50.90
17399;DHT22;8817;48.170;8.592;2023-03-14T12:58:55;12.10;50.90
17399;DHT22;8817;48.170;8.592;2023-03-14T13:01:26;12.10;50.90
17399;DHT22;8817;48.170;8.592;2023-03-14T13:03:56;12.00;50.80
17399;DHT22;8817;48.170;8.592;2023-03-14T13:06:46;12.00;50.80
17399;DHT22;8817;48.170;8.592;2023-03-14T13:09:36;11.90;50.80
17399;DHT22;8817;48.170;8.592;2023-03-14T13:12:07;11.80;50.70
17399;DHT22;8817;48.170;8.592;2023-03-14T13:14:40;11.80;50.70
17399;DHT22;8817;48.170;8.592;2023-03-14T13:17:11;11.70;50.80
17399;DHT22;8817;48.170;8.592;2023-03-14T13:19:38;11.60;50.80
17399;DHT22;8817;48.170;8.592;2023-03-14T13:22:12;11.60;50.80
17399;DHT22;8817;48.170;8.592;2023-03-14T13:24:41;11.60;50.90
17399;DHT22;8817;48.170;8.592;2023-03-14T13:27:17;11.60;50.90
17399;DHT22;8817;48.170;8.592;2023-03-14T13:29:44;11.60;50.80
17399;DHT22;8817;48.170;8.592;2023-03-14T13:32:19;11.60;50.70
17399;DHT22;8817;48.170;8.592;2023-03-14T13:34:46;11.60;50.70
17399;DHT22;8817;48.170;8.592;2023-03-14T13:37:17;11.60;50.70
17399;DHT22;8817;48.170;8.592;2023-03-14T13:39:49;11.60;50.60
17399;DHT22;8817;48.170;8.592;2023-03-14T13:42:17;11.50;50.50
17399;DHT22;8817;48.170;8.592;2023-03-14T13:44:44;11.50;50.50
17399;DHT22;8817;48.170;8.592;2023-03-14T13:47:17;11.50;50.50
17399;DHT22;8817;48.170;8.592;2023-03-14T13:49:44;11.50;50.60
17399;DHT22;8817;48.170;8.592;2023-03-14T13:52:28;11.50;50.60
17399;DHT22;8817;48.170;8.592;2023-03-14T13:54:56;11.40;50.60
17399;DHT22;8817;48.170;8.592;2023-03-14T13:57:23;11.50;50.60
17399;DHT22;8817;48.170;8.592;2023-03-14T14:00:16;11.50;50.70
17399;DHT22;8817;48.170;8.592;2023-03-14T14:02:45;11.40;50.70
17399;DHT22;8817;48.170;8.592;2023-03-14T14:05:12;11.50;50.50
17399;DHT22;8817;48.170;8.592;2023-03-14T14:07:39;11.50;50.50
17399;DHT22;8817;48.170;8.592;2023-03-14T14:10:10;11.50;50.50
17399;DHT22;8817;48.170;8.592;2023-03-14T14:12:40;11.50;50.50
17399;DHT22;8817;48.170;8.592;2023-03-14T14:15:10;11.50;50.40
17399;DHT22;8817;48.170;8.592;2023-03-14T14:17:41;11.50;50.30
17399;DHT22;8817;48.170;8.592;2023-03-14T14:20:17;11.50;50.30
17399;DHT22;8817;48.170;8.592;2023-03-14T14:22:46;11.50;50.20
17399;DHT22;8817;48.170;8.592;2023-03-14T14:25:13;11.50;50.20
17399;DHT22;8817;48.170;8.592;2023-03-14T14:27:42;11.40;50.10
17399;DHT22;8817;48.170;8.592;2023-03-14T14:30:27;11.30;50.20
17399;DHT22;8817;48.170;8.592;2023-03-14T14:33:11;11.30;50.20
17399;DHT22;8817;48.170;8.592;2023-03-14T14:35:40;11.30;50.30
17399;DHT22;8817;48.170;8.592;2023-03-14T14:38:12;11.40;50.40
17399;DHT22;8817;48.170;8.592;2023-03-14T14:40:47;11.40;50.30
17399;DHT22;8817;48.170;8.592;2023-03-14T14:43:17;11.40;50.10
17399;DHT22;8817;48.170;8.592;2023-03-14T14:45:45;11.40;49.90
17399;DHT22;8817;48.170;8.592;2023-03-14T14:48:21;11.30;49.80
17399;DHT22;8817;48.170;8.592;2023-03-14T14:50:58;11.30;49.80
17399;DHT22;8817;48.170;8.592;2023-03-14T14:53:28;11.30;50.00
17399;DHT22;8817;48.170;8.592;2023-03-14T14:55:57;11.40;50.30
17399;DHT22;8817;48.170;8.592;2023-03-14T14:58:26;11.30;50.20
17399;DHT22;8817;48.170;8.592;2023-03-14T15:00:57;11.30;50.20
17399;DHT22;8817;48.170;8.592;2023-03-14T15:03:30;11.40;50.20
17399;DHT22;8817;48.170;8.592;2023-03-14T15:05:59;11.40;50.00
17399;DHT22;8817;48.170;8.592;2023-03-14T15:08:27;11.40;49.90
17399;DHT22;8817;48.170;8.592;2023-03-14T15:10:54;11.50;49.90
17399;DHT22;8817;48.170;8.592;2023-03-14T15:13:21;11.50;49.80
17399;DHT22;8817;48.170;8.592;2023-03-14T15:15:49;11.50;49.80
17399;DHT22;8817;48.170;8.592;2023-03-14T15:18:22;11.50;49.80
17399;DHT22;8817;48.170;8.592;2023-03-14T15:20:50;11.50;49.70
17399;DHT22;8817;48.170;8.592;2023-03-14T15:23:20;11.50;49.70
17399;DHT22;8817;48.170;8.592;2023-03-14T15:25:47;11.50;49.70
17399;DHT22;8817;48.170;8.592;2023-03-14T15:28:16;11.50;50.20
17399;DHT22;8817;48.170;8.592;2023-03-14T15:30:45;11.50;49.60
17399;DHT22;8817;48.170;8.592;2023-03-14T15:33:13;11.50;49.70
17399;DHT22;8817;48.170;8.592;2023-03-14T15:35:40;11.60;50.30
17399;DHT22;8817;48.170;8.592;2023-03-14T15:38:10;11.60;49.70
17399;DHT22;8817;48.170;8.592;2023-03-14T15:40:40;11.70;49.70
17399;DHT22;8817;48.170;8.592;2023-03-14T15:43:07;11.70;49.60
17399;DHT22;8817;48.170;8.592;2023-03-14T15:45:34;11.70;49.70
17399;DHT22;8817;48.170;8.592;2023-03-14T15:48:01;11.80;49.70
17399;DHT22;8817;48.170;8.592;2023-03-14T15:50:28;11.80;49.60
17399;DHT22;8817;48.170;8.592;2023-03-14T15:52:55;11.90;49.60
17399;DHT22;8817;48.170;8.592;2023-03-14T15:55:22;11.90;49.40
17399;DHT22;8817;48.170;8.592;2023-03-14T15:57:50;12.00;49.40
17399;DHT22;8817;48.170;8.592;2023-03-14T16:00:19;11.90;49.30
17399;DHT22;8817;48.170;8.592;2023-03-14T16:02:47;12.00;49.30